createdAt,value
2022-11-21T00:01:21.528Z,96941.22
2022-11-21T00:03:49.879Z,96882.88
2022-11-21T00:06:18.404Z,96950.69
2022-11-21T00:08:46.688Z,96939.38
2022-11-21T00:11:14.952Z,96950.50
2022-11-21T00:13:44.662Z,96943.66
2022-11-21T00:16:14.652Z,96911.06
2022-11-21T00:18:44.233Z,96939.44
2022-11-21T00:21:16.758Z,96940.34
2022-11-21T00:23:45.347Z,96812.63
2022-11-21T00:26:15.147Z,96946.38
2022-11-21T00:28:45.203Z,96915.47
2022-11-21T00:31:20.717Z,96862.16
2022-11-21T00:33:49.001Z,96909.34
2022-11-21T00:36:17.113Z,96935.19
2022-11-21T00:38:45.287Z,96810.84
2022-11-21T00:41:13.377Z,96911.97
2022-11-21T00:43:41.487Z,96924.03
2022-11-21T00:46:10.963Z,96930.97
2022-11-21T00:48:39.085Z,96917.97
2022-11-21T00:51:07.242Z,96891.44
2022-11-21T00:53:35.477Z,96917.16
2022-11-21T00:56:03.599Z,96907.69
2022-11-21T00:58:31.743Z,96865.59
2022-11-21T01:01:08.032Z,96895.63
2022-11-21T01:03:38.388Z,96906.75
2022-11-21T01:06:09.102Z,96907.63
2022-11-21T01:08:39.023Z,96902.41
2022-11-21T01:11:08.734Z,96906.72
2022-11-21T01:13:37.366Z,96896.38
2022-11-21T01:16:06.703Z,96904.94
2022-11-21T01:18:34.896Z,96909.38
2022-11-21T01:21:05.987Z,96907.72
2022-11-21T01:23:34.573Z,96899.13
2022-11-21T01:26:03.819Z,96872.63
2022-11-21T01:28:32.242Z,96891.47
2022-11-21T01:31:05.403Z,96894.06
2022-11-21T01:33:33.573Z,96893.22
2022-11-21T01:36:12.516Z,96888.09
2022-11-21T01:38:41.269Z,96900.97
2022-11-21T01:41:09.878Z,96890.72
2022-11-21T01:43:38.587Z,96876.13
2022-11-21T01:46:11.577Z,96865.81
2022-11-21T01:48:44.476Z,96877.81
2022-11-21T01:51:21.834Z,96882.94
2022-11-21T01:53:55.399Z,96879.59
2022-11-21T01:56:24.962Z,96877.00
2022-11-21T01:58:56.090Z,96875.28
2022-11-21T02:01:25.043Z,96877.81
2022-11-21T02:03:54.868Z,96877.84
2022-11-21T02:06:25.598Z,96874.31
2022-11-21T02:08:53.771Z,96876.97
2022-11-21T02:11:31.897Z,96870.91
2022-11-21T02:14:01.192Z,96876.91
2022-11-21T02:16:30.036Z,96874.34
2022-11-21T02:18:58.358Z,96864.03
2022-11-21T02:21:40.552Z,96846.00
2022-11-21T02:24:15.805Z,96800.56
2022-11-21T02:26:47.502Z,96833.16
2022-11-21T02:29:15.837Z,96849.34
2022-11-21T02:31:43.955Z,96852.72
2022-11-21T02:34:12.101Z,96735.25
2022-11-21T02:36:43.501Z,96845.00
2022-11-21T02:39:16.682Z,96833.91
2022-11-21T02:41:55.785Z,96833.88
2022-11-21T02:44:28.925Z,96823.56
2022-11-21T02:46:57.875Z,96796.22
2022-11-21T02:49:47.979Z,96835.69
2022-11-21T02:52:16.116Z,96826.16
2022-11-21T02:54:44.232Z,96825.25
2022-11-21T02:57:13.832Z,96820.84
2022-11-21T02:59:41.956Z,96819.13
2022-11-21T03:02:10.074Z,96814.81
2022-11-21T03:04:38.203Z,96807.06
2022-11-21T03:07:06.307Z,96813.97
2022-11-21T03:09:34.453Z,96808.78
2022-11-21T03:12:07.175Z,96796.78
2022-11-21T03:14:36.906Z,96820.69
2022-11-21T03:17:06.016Z,96716.16
2022-11-21T03:19:34.153Z,96808.66
2022-11-21T03:22:02.321Z,96806.94
2022-11-21T03:24:30.535Z,96787.19
2022-11-21T03:26:58.717Z,96806.13
2022-11-21T03:29:26.808Z,96812.25
2022-11-21T03:31:56.401Z,96814.03
2022-11-21T03:34:25.277Z,96812.44
2022-11-21T03:36:53.723Z,96809.88
2022-11-21T03:39:21.886Z,96808.22
2022-11-21T03:41:49.963Z,96804.78
2022-11-21T03:44:18.274Z,96810.88
2022-11-21T03:46:47.992Z,96806.63
2022-11-21T03:49:17.977Z,96801.44
2022-11-21T03:51:46.472Z,96803.16
2022-11-21T03:54:14.652Z,96804.06
2022-11-21T03:56:42.714Z,96801.44
2022-11-21T03:59:10.923Z,96812.63
2022-11-21T04:01:39.163Z,96808.25
2022-11-21T04:04:07.417Z,96808.25
2022-11-21T04:06:36.962Z,96771.44
2022-11-21T04:09:05.426Z,96812.56
2022-11-21T04:11:33.571Z,96776.56
2022-11-21T04:14:01.682Z,96818.63
2022-11-21T04:16:29.796Z,96810.94
2022-11-21T04:18:57.920Z,96807.50
2022-11-21T04:21:26.067Z,96822.94
2022-11-21T04:23:55.588Z,96822.03
2022-11-21T04:26:23.697Z,96820.28
2022-11-21T04:28:51.853Z,96766.19
2022-11-21T04:31:19.934Z,96832.31
2022-11-21T04:33:48.011Z,96694.34
2022-11-21T04:36:16.141Z,96827.09
2022-11-21T04:38:44.252Z,96822.78
2022-11-21T04:41:13.937Z,96810.66
2022-11-21T04:43:42.017Z,96808.13
2022-11-21T04:46:10.074Z,96804.72
2022-11-21T04:48:38.229Z,96801.38
2022-11-21T04:51:06.366Z,96812.66
2022-11-21T04:53:38.593Z,96808.44
2022-11-21T04:56:09.569Z,96808.41
2022-11-21T04:58:39.072Z,96804.06
2022-11-21T05:01:08.605Z,96803.22
2022-11-21T05:03:37.523Z,96806.63
2022-11-21T05:06:05.805Z,96791.06
2022-11-21T05:08:33.997Z,96797.03
2022-11-21T05:11:19.467Z,96784.19
2022-11-21T05:13:49.062Z,96783.25
2022-11-21T05:16:17.225Z,96772.88
2022-11-21T05:18:45.322Z,96775.47
2022-11-21T05:21:13.403Z,96776.41
2022-11-21T05:23:41.493Z,96779.88
2022-11-21T05:26:09.643Z,96784.19
2022-11-21T05:28:37.865Z,96785.94
2022-11-21T05:31:07.372Z,96778.19
2022-11-21T05:33:35.441Z,96788.41
2022-11-21T05:36:03.523Z,96780.66
2022-11-21T05:38:31.608Z,96790.88
2022-11-21T05:40:59.692Z,96791.78
2022-11-21T05:43:45.343Z,96793.56
2022-11-21T05:46:16.332Z,96794.47
2022-11-21T05:48:44.788Z,96785.97
2022-11-21T05:51:13.578Z,96785.97
2022-11-21T05:53:41.824Z,96786.84
2022-11-21T05:56:11.602Z,96797.19
2022-11-21T05:58:40.108Z,96798.03
2022-11-21T06:01:10.038Z,96795.38
2022-11-21T06:03:40.374Z,96789.38
2022-11-21T06:06:10.312Z,96772.25
2022-11-21T06:08:39.678Z,96795.44
2022-11-21T06:11:09.353Z,96796.31
2022-11-21T06:13:37.934Z,96796.34
2022-11-21T06:16:08.633Z,96792.91
2022-11-21T06:18:38.384Z,96786.03
2022-11-21T06:21:09.477Z,96695.28
2022-11-21T06:23:37.962Z,96790.41
2022-11-21T06:26:08.394Z,96778.38
2022-11-21T06:28:38.928Z,96792.94
2022-11-21T06:31:07.396Z,96780.06
2022-11-21T06:33:36.477Z,96797.97
2022-11-21T06:36:05.719Z,96639.53
2022-11-21T06:38:36.485Z,96800.59
2022-11-21T06:41:08.197Z,96795.38
2022-11-21T06:43:36.339Z,96803.94
2022-11-21T06:46:04.548Z,96803.88
2022-11-21T06:48:32.773Z,96810.72
2022-11-21T06:51:05.398Z,96803.84
2022-11-21T06:53:33.674Z,96748.06
2022-11-21T06:56:04.084Z,96798.59
2022-11-21T06:58:32.709Z,96797.69
2022-11-21T07:01:06.261Z,96793.28
2022-11-21T07:03:34.688Z,96801.84
2022-11-21T07:06:03.288Z,96798.31
2022-11-21T07:08:33.047Z,96796.56
2022-11-21T07:11:24.292Z,96675.75
2022-11-21T07:13:52.828Z,96811.06
2022-11-21T07:16:21.013Z,96778.59
2022-11-21T07:18:49.212Z,96804.25
2022-11-21T07:21:17.314Z,96820.69
2022-11-21T07:23:45.414Z,96816.41
2022-11-21T07:26:15.159Z,96816.41
2022-11-21T07:28:43.765Z,96812.91
2022-11-21T07:31:14.192Z,96828.31
2022-11-21T07:33:43.517Z,96788.75
2022-11-21T07:36:12.063Z,96810.97
2022-11-21T07:38:41.808Z,96792.84
2022-11-21T07:41:10.290Z,96803.16
2022-11-21T07:43:39.849Z,96806.56
2022-11-21T07:46:08.004Z,96806.47
2022-11-21T07:48:36.206Z,96810.78
2022-11-21T07:51:07.728Z,96789.34
2022-11-21T07:53:35.934Z,96806.28
2022-11-21T07:56:04.975Z,96811.28
2022-11-21T07:58:33.102Z,96786.44
2022-11-21T08:01:05.865Z,96733.25
2022-11-21T08:03:34.562Z,96810.22
2022-11-21T08:06:04.733Z,96788.72
2022-11-21T08:08:33.126Z,96809.22
2022-11-21T08:11:06.251Z,96802.41
2022-11-21T08:13:34.564Z,96801.50
2022-11-21T08:16:05.545Z,96804.06
2022-11-21T08:18:34.007Z,96805.00
2022-11-21T08:21:03.608Z,96792.88
2022-11-21T08:23:32.254Z,96791.91
2022-11-21T08:26:00.623Z,96787.47
2022-11-21T08:28:29.105Z,96765.84
2022-11-21T08:30:57.258Z,96777.69
2022-11-21T08:33:26.783Z,96782.72
2022-11-21T08:35:54.959Z,96762.28
2022-11-21T08:38:23.256Z,96775.59
2022-11-21T08:41:17.278Z,96759.00
2022-11-21T08:43:46.097Z,96754.47
2022-11-21T08:46:14.256Z,96775.53
2022-11-21T08:48:43.793Z,96777.09
2022-11-21T08:51:11.915Z,96782.28
2022-11-21T08:53:40.018Z,96790.19
2022-11-21T08:56:08.114Z,96761.31
2022-11-21T08:58:36.317Z,96779.00
2022-11-21T09:01:04.479Z,96766.97
2022-11-21T09:03:32.843Z,96778.09
2022-11-21T09:06:02.406Z,96738.91
2022-11-21T09:08:31.394Z,96787.97
2022-11-21T09:10:59.845Z,96769.25
2022-11-21T09:13:28.559Z,96775.03
2022-11-21T09:16:19.081Z,96795.31
2022-11-21T09:18:48.515Z,96792.47
2022-11-21T09:21:19.093Z,96785.41
2022-11-21T09:23:47.404Z,96781.78
2022-11-21T09:26:15.591Z,96784.22
2022-11-21T09:28:43.747Z,96776.09
2022-11-21T09:31:12.038Z,96751.47
2022-11-21T09:33:40.173Z,96779.44
2022-11-21T09:36:08.394Z,96781.75
2022-11-21T09:38:37.957Z,96773.66
2022-11-21T09:41:31.961Z,96768.19
2022-11-21T09:44:07.699Z,96764.53
2022-11-21T09:46:44.283Z,96733.25
2022-11-21T09:49:15.143Z,96765.56
2022-11-21T09:51:46.307Z,96765.56
2022-11-21T09:54:21.038Z,96761.47
2022-11-21T09:56:50.043Z,96757.13
2022-11-21T09:59:34.106Z,96614.56
2022-11-21T10:02:02.628Z,96738.22
2022-11-21T10:04:31.239Z,96753.38
2022-11-21T10:07:05.891Z,96747.56
2022-11-21T10:09:57.303Z,96750.31
2022-11-21T10:12:40.458Z,96749.50
2022-11-21T10:15:25.332Z,96739.03
2022-11-21T10:18:10.375Z,96728.28
2022-11-21T10:20:52.332Z,96724.66
2022-11-21T10:23:45.632Z,96711.00
2022-11-21T10:26:24.190Z,96709.00
2022-11-21T10:28:55.968Z,96723.47
2022-11-21T10:31:24.339Z,96729.22
2022-11-21T10:33:55.533Z,96724.47
2022-11-21T10:36:30.158Z,96681.56
2022-11-21T10:39:02.459Z,96708.72
2022-11-21T10:41:42.369Z,96701.59
2022-11-21T10:44:35.787Z,96715.25
2022-11-21T10:47:04.289Z,96719.63
2022-11-21T10:49:36.568Z,96708.53
2022-11-21T10:52:09.338Z,96701.53
2022-11-21T10:55:05.007Z,96675.78
2022-11-21T10:57:40.988Z,96660.44
2022-11-21T11:00:22.526Z,96680.06
2022-11-21T11:03:04.943Z,96688.00
2022-11-21T11:05:34.710Z,96653.09
2022-11-21T11:08:05.997Z,96691.94
2022-11-21T11:10:35.357Z,96694.41
2022-11-21T11:13:47.206Z,96690.22
2022-11-21T11:16:18.669Z,96641.94
2022-11-21T11:18:57.373Z,96682.84
2022-11-21T11:21:27.294Z,96683.13
2022-11-21T11:24:06.984Z,96677.06
2022-11-21T11:26:35.364Z,96662.75
2022-11-21T11:29:14.574Z,96680.19
2022-11-21T11:31:43.927Z,96656.06
2022-11-21T11:34:16.483Z,96670.66
2022-11-21T11:36:55.457Z,96666.69
2022-11-21T11:39:37.313Z,96664.31
2022-11-21T11:42:48.418Z,96663.59
2022-11-21T11:45:49.059Z,96650.44
2022-11-21T11:48:20.510Z,96646.00
2022-11-21T11:50:52.445Z,96647.50
2022-11-21T11:53:22.470Z,96644.88
2022-11-21T11:55:54.829Z,96610.06
2022-11-21T11:58:27.981Z,96608.88
2022-11-21T12:01:04.031Z,96645.53
2022-11-21T12:03:41.262Z,96644.53
2022-11-21T12:06:17.375Z,96640.31
2022-11-21T12:08:54.836Z,96634.06
2022-11-21T12:11:49.187Z,96639.00
2022-11-21T12:14:49.072Z,96648.63
2022-11-21T12:17:22.830Z,96591.13
2022-11-21T12:19:53.723Z,96507.16
2022-11-21T12:22:22.043Z,96641.31
2022-11-21T12:24:50.302Z,96647.00
2022-11-21T12:27:25.646Z,96643.25
2022-11-21T12:30:35.217Z,96578.50
2022-11-21T12:33:09.161Z,96608.28
2022-11-21T12:36:17.381Z,96630.19
2022-11-21T12:39:03.489Z,96604.31
2022-11-21T12:41:54.115Z,96625.13
2022-11-21T12:44:37.041Z,96631.72
2022-11-21T12:47:20.569Z,96622.44
2022-11-21T12:50:17.267Z,96627.22
2022-11-21T12:53:08.157Z,96568.16
2022-11-21T12:55:39.269Z,96572.09
2022-11-21T12:58:22.383Z,96590.75
2022-11-21T13:01:01.225Z,96583.06
2022-11-21T13:03:48.927Z,96571.03
2022-11-21T13:06:22.525Z,96587.03
2022-11-21T13:08:53.668Z,96577.06
2022-11-21T13:11:49.836Z,96588.66
2022-11-21T13:14:28.016Z,96557.81
2022-11-21T13:17:06.830Z,96573.00
2022-11-21T13:19:43.546Z,96569.38
2022-11-21T13:22:44.622Z,96555.50
2022-11-21T13:25:15.268Z,96568.09
2022-11-21T13:27:44.915Z,96561.94
2022-11-21T13:30:22.637Z,96563.81
2022-11-21T13:32:52.355Z,96555.44
2022-11-21T13:36:08.343Z,96547.34
2022-11-21T13:39:06.147Z,96552.28
2022-11-21T13:42:26.667Z,96549.97
2022-11-21T13:44:55.346Z,96550.63
2022-11-21T13:48:09.166Z,96554.78
2022-11-21T13:51:17.060Z,96564.25
2022-11-21T13:54:07.909Z,96563.41
2022-11-21T13:56:47.149Z,96558.06
2022-11-21T13:59:35.987Z,96574.19
2022-11-21T14:02:20.590Z,96558.06
2022-11-21T14:05:25.802Z,96559.88
2022-11-21T14:07:54.136Z,96570.63
2022-11-21T14:10:34.321Z,96558.56
2022-11-21T14:13:04.647Z,96577.88
2022-11-21T14:15:39.863Z,96538.34
2022-11-21T14:18:21.092Z,96555.06
2022-11-21T14:20:54.007Z,96575.00
2022-11-21T14:23:24.298Z,96569.78
2022-11-21T14:25:56.967Z,96581.63
2022-11-21T14:28:27.085Z,96587.09
2022-11-21T14:31:02.089Z,96585.34
2022-11-21T14:33:33.437Z,96565.41
2022-11-21T14:36:05.182Z,96588.63
2022-11-21T14:38:37.904Z,96586.00
2022-11-21T14:41:34.577Z,96592.28
2022-11-21T14:44:18.722Z,96588.13
2022-11-21T14:46:49.089Z,96573.84
2022-11-21T14:49:26.903Z,96589.44
2022-11-21T14:52:00.848Z,96589.59
2022-11-21T14:54:33.022Z,96593.13
2022-11-21T14:57:02.967Z,96585.66
2022-11-21T14:59:34.009Z,96588.38
2022-11-21T15:02:12.386Z,96552.56
2022-11-21T15:04:42.906Z,96592.13
2022-11-21T15:07:20.899Z,96594.97
2022-11-21T15:12:47.758Z,96601.19
2022-11-21T15:15:27.512Z,96565.44
2022-11-21T15:18:28.362Z,96597.00
2022-11-21T15:20:50.866Z,96593.66
2022-11-21T15:23:28.765Z,96592.81
2022-11-21T15:26:01.004Z,96571.47
2022-11-21T15:28:30.421Z,96568.09
2022-11-21T15:31:25.858Z,96586.91
2022-11-21T15:37:04.988Z,96558.69
2022-11-21T15:39:34.588Z,96566.75
2022-11-21T15:42:45.403Z,96583.03
2022-11-21T15:45:31.107Z,96585.75
2022-11-21T15:47:59.297Z,96579.75
2022-11-21T15:50:28.945Z,96583.34
2022-11-21T15:52:57.108Z,96587.75
2022-11-21T15:55:29.278Z,96537.59
2022-11-21T15:57:57.482Z,96582.19
2022-11-21T16:00:25.791Z,96577.06
2022-11-21T16:02:53.943Z,96552.44
2022-11-21T16:05:22.114Z,96573.81
2022-11-21T16:07:51.864Z,96573.03
2022-11-21T16:10:26.091Z,96576.38
2022-11-21T16:12:55.676Z,96566.31
2022-11-21T16:15:24.458Z,96572.47
2022-11-21T16:17:52.889Z,96572.66
2022-11-21T16:20:21.258Z,96575.47
2022-11-21T16:22:50.012Z,96604.94
2022-11-21T16:25:20.067Z,96569.56
2022-11-21T16:27:48.616Z,96571.44
2022-11-21T16:30:17.020Z,96550.09
2022-11-21T16:32:45.357Z,96557.75
2022-11-21T16:35:13.578Z,96570.28
2022-11-21T16:37:42.054Z,96575.63
2022-11-21T16:40:11.777Z,96575.91
2022-11-21T16:42:41.477Z,96563.28
2022-11-21T16:45:10.417Z,96572.72
2022-11-21T16:47:38.677Z,96581.44
2022-11-21T16:50:07.767Z,96582.34
2022-11-21T16:52:36.961Z,96591.13
2022-11-21T16:55:06.028Z,96585.97
2022-11-21T16:57:36.680Z,96588.59
2022-11-21T17:00:08.157Z,96585.19
2022-11-21T17:02:38.875Z,96580.06
2022-11-21T17:05:08.067Z,96567.19
2022-11-21T17:07:36.421Z,96429.81
2022-11-21T17:10:05.145Z,96555.19
2022-11-21T17:12:39.112Z,96522.78
2022-11-21T17:15:12.938Z,96566.50
2022-11-21T17:17:41.987Z,96564.88
2022-11-21T17:20:11.684Z,96513.78
2022-11-21T17:22:39.971Z,96552.16
2022-11-21T17:25:08.907Z,96577.13
2022-11-21T17:27:37.167Z,96572.84
2022-11-21T17:30:06.496Z,96570.16
2022-11-21T17:32:37.447Z,96521.50
2022-11-21T17:35:06.847Z,96565.22
2022-11-21T17:37:35.224Z,96546.47
2022-11-21T17:40:03.787Z,96569.53
2022-11-21T17:42:32.047Z,96569.41
2022-11-21T17:45:00.327Z,96572.22
2022-11-21T17:47:28.613Z,96564.59
2022-11-21T17:50:04.122Z,96543.31
2022-11-21T17:52:34.133Z,96532.28
2022-11-21T17:55:02.437Z,96570.84
2022-11-21T17:57:30.706Z,96563.00
2022-11-21T17:59:58.935Z,96571.53
2022-11-21T18:02:27.495Z,96549.44
2022-11-21T18:04:57.426Z,96553.59
2022-11-21T18:07:25.690Z,96547.63
2022-11-21T18:09:53.909Z,96560.63
2022-11-21T18:12:22.786Z,96548.53
2022-11-21T18:14:51.026Z,96545.19
2022-11-21T18:17:19.325Z,96526.50
2022-11-21T18:19:47.728Z,96522.31
2022-11-21T18:22:17.526Z,96547.09
2022-11-21T18:24:47.003Z,96556.59
2022-11-21T18:27:15.365Z,96529.16
2022-11-21T18:29:43.677Z,96549.63
2022-11-21T18:32:11.996Z,96512.06
2022-11-21T18:34:40.227Z,96545.41
2022-11-21T18:37:08.416Z,96523.44
2022-11-21T18:39:37.959Z,96547.22
2022-11-21T18:42:06.236Z,96531.03
2022-11-21T18:44:34.339Z,96543.00
2022-11-21T18:47:08.585Z,96537.84
2022-11-21T18:49:48.010Z,96520.81
2022-11-21T18:52:16.338Z,96528.41
2022-11-21T18:54:47.048Z,96509.66
2022-11-21T18:57:15.242Z,96517.25
2022-11-21T18:59:43.339Z,96518.09
2022-11-21T19:02:11.674Z,96515.50
2022-11-21T19:04:39.937Z,96518.94
2022-11-21T19:07:08.185Z,96495.03
2022-11-21T19:09:36.495Z,96485.66
2022-11-21T19:12:06.476Z,96516.53
2022-11-21T19:14:35.007Z,96528.66
2022-11-21T19:17:03.113Z,96510.72
2022-11-21T19:19:35.500Z,96544.81
2022-11-21T19:22:04.943Z,96550.88
2022-11-21T19:24:33.541Z,96533.06
2022-11-21T19:27:01.635Z,96470.78
2022-11-21T19:29:31.602Z,96533.72
2022-11-21T19:32:00.137Z,96547.31
2022-11-21T19:34:28.395Z,96550.69
2022-11-21T19:36:56.564Z,96554.75
2022-11-21T19:39:24.821Z,96559.00
2022-11-21T19:41:53.081Z,96556.41
2022-11-21T19:44:21.216Z,96545.13
2022-11-21T19:46:50.967Z,96525.50
2022-11-21T19:49:20.438Z,96550.97
2022-11-21T19:51:48.668Z,96548.28
2022-11-21T19:54:17.363Z,96529.41
2022-11-21T19:56:45.533Z,96549.84
2022-11-21T19:59:14.728Z,96542.91
2022-11-21T20:01:45.913Z,96536.84
2022-11-21T20:04:17.948Z,96540.16
2022-11-21T20:06:46.439Z,96517.06
2022-11-21T20:09:15.934Z,96532.47
2022-11-21T20:11:45.730Z,96526.31
2022-11-21T20:14:20.909Z,96534.03
2022-11-21T20:16:50.739Z,96533.22
2022-11-21T20:19:22.623Z,96453.88
2022-11-21T20:21:51.320Z,96523.84
2022-11-21T20:24:19.711Z,96524.84
2022-11-21T20:26:47.855Z,96523.09
2022-11-21T20:29:17.564Z,96365.34
2022-11-21T20:31:48.655Z,96517.16
2022-11-21T20:34:17.253Z,96490.66
2022-11-21T20:36:47.679Z,96517.16
2022-11-21T20:39:17.384Z,96491.41
2022-11-21T20:41:47.216Z,96467.47
2022-11-21T20:47:06.415Z,96478.22
2022-11-21T20:49:34.873Z,96376.69
2022-11-21T20:54:52.894Z,96483.16
2022-11-21T20:57:21.287Z,96466.16
2022-11-21T20:59:49.381Z,96426.09
2022-11-21T21:02:17.541Z,96483.22
2022-11-21T21:04:45.784Z,96440.34
2022-11-21T21:07:15.657Z,96476.25
2022-11-21T21:09:43.874Z,96466.69
2022-11-21T21:12:12.056Z,96467.59
2022-11-21T21:14:40.293Z,96456.41
2022-11-21T21:17:08.459Z,96452.09
2022-11-21T21:19:36.712Z,96442.63
2022-11-21T21:22:05.932Z,96435.81
2022-11-21T21:24:35.582Z,96441.66
2022-11-21T21:27:03.874Z,96443.31
2022-11-21T21:29:32.425Z,96444.22
2022-11-21T21:32:00.789Z,96440.94
2022-11-21T21:34:29.142Z,96442.72
2022-11-21T21:36:57.682Z,96421.34
2022-11-21T21:39:27.693Z,96443.59
2022-11-21T21:41:57.426Z,96442.81
2022-11-21T21:44:31.539Z,96437.69
2022-11-21T21:47:01.420Z,96440.22
2022-11-21T21:49:29.607Z,96445.28
2022-11-21T21:51:57.831Z,96448.66
2022-11-21T21:54:26.023Z,96435.94
2022-11-21T21:56:54.171Z,96453.66
2022-11-21T21:59:23.938Z,96450.19
2022-11-21T22:01:52.033Z,96454.41
2022-11-21T22:04:20.210Z,96451.22
2022-11-21T22:06:48.360Z,96458.09
2022-11-21T22:09:16.490Z,96431.63
2022-11-21T22:11:44.737Z,96427.34
2022-11-21T22:14:14.309Z,96446.13
2022-11-21T22:16:44.642Z,96449.44
2022-11-21T22:19:13.526Z,96414.94
2022-11-21T22:21:41.709Z,96430.06
2022-11-21T22:24:29.531Z,96415.78
2022-11-21T22:26:58.081Z,96427.94
2022-11-21T22:29:26.521Z,96430.69
2022-11-21T22:31:56.135Z,96414.66
2022-11-21T22:34:24.705Z,96407.81
2022-11-21T22:36:52.824Z,96424.84
2022-11-21T22:39:21.217Z,96420.50
2022-11-21T22:41:49.348Z,96418.03
2022-11-21T22:44:17.593Z,96420.38
2022-11-21T22:46:45.732Z,96422.06
2022-11-21T22:49:15.656Z,96429.84
2022-11-21T22:51:45.362Z,96413.81
2022-11-21T22:54:14.789Z,96418.09
2022-11-21T22:56:43.021Z,96402.75
2022-11-21T22:59:13.657Z,96412.00
2022-11-21T23:01:41.927Z,96409.41
2022-11-21T23:04:14.545Z,96406.72
2022-11-21T23:06:47.084Z,96404.84
2022-11-21T23:09:39.426Z,96369.09
2022-11-21T23:12:07.816Z,96393.66
2022-11-21T23:14:35.930Z,96401.31
2022-11-21T23:17:04.061Z,96406.69
2022-11-21T23:19:32.381Z,96402.41
2022-11-21T23:22:02.028Z,96362.59
2022-11-21T23:24:30.416Z,96389.81
2022-11-21T23:26:58.567Z,96362.31
2022-11-21T23:29:27.001Z,96376.72
2022-11-21T23:31:55.422Z,96374.88
2022-11-21T23:34:23.668Z,96362.75
2022-11-21T23:36:51.853Z,96358.22
2022-11-21T23:39:21.399Z,96370.09
2022-11-21T23:41:49.554Z,96312.94
2022-11-21T23:44:17.816Z,96338.03
2022-11-21T23:46:45.942Z,96341.53
2022-11-21T23:49:14.156Z,96357.72
2022-11-21T23:51:42.220Z,96355.75
2022-11-21T23:54:10.415Z,96344.59
2022-11-21T23:56:39.997Z,96332.56
2022-11-21T23:59:08.540Z,96332.63
